Time;durP1;ratioP1;P1;durP2;ratioP2;P2;SDS_P1;SDS_P2;PMS_P1;PMS_P2;Temp;Humidity;BMP_temperature;BMP_pressure;BME280_temperature;BME280_humidity;BME280_pressure;Samples;Min_cycle;Max_cycle;Signal;HPM_P1;HPM_P2
2023/05/07 00:01:42;;;;;;;19.10;13.03;;;16.30;44.60;;;;;;5071567;28;20260;-52
2023/05/07 00:04:08;;;;;;;15.13;13.23;;;16.30;43.90;;;;;;5071816;28;20161;-52
2023/05/07 00:06:34;;;;;;;16.00;13.50;;;16.20;44.10;;;;;;5072003;28;20183;-52
2023/05/07 00:09:00;;;;;;;18.40;14.43;;;16.20;44.20;;;;;;5071789;28;20959;-52
2023/05/07 00:11:27;;;;;;;20.05;14.77;;;16.10;44.50;;;;;;5072624;28;20787;-52
2023/05/07 00:13:53;;;;;;;17.25;14.32;;;16.10;44.50;;;;;;5075558;28;20173;-52
2023/05/07 00:16:19;;;;;;;18.27;14.80;;;16.10;45.00;;;;;;5075638;28;20191;-52
2023/05/07 00:18:45;;;;;;;15.53;13.87;;;16.10;45.10;;;;;;5075528;28;20177;-52
2023/05/07 00:21:11;;;;;;;19.17;15.60;;;16.10;45.00;;;;;;5075474;28;20462;-52
2023/05/07 00:23:36;;;;;;;19.20;14.93;;;16.10;45.00;;;;;;5075217;28;20197;-52
2023/05/07 00:26:03;;;;;;;23.63;17.47;;;16.10;44.70;;;;;;5075472;28;20866;-52
2023/05/07 00:28:29;;;;;;;22.45;16.33;;;16.10;44.50;;;;;;5075314;28;20167;-52
2023/05/07 00:30:55;;;;;;;20.00;15.30;;;16.10;44.70;;;;;;5075163;28;20287;-54
2023/05/07 00:33:21;;;;;;;17.67;15.77;;;16.10;44.60;;;;;;5075100;28;20771;-52
2023/05/07 00:35:48;;;;;;;21.27;16.25;;;16.10;44.40;;;;;;5075279;28;20446;-52
2023/05/07 00:38:14;;;;;;;19.15;15.02;;;16.10;44.30;;;;;;5075154;28;20179;-52
2023/05/07 00:40:39;;;;;;;20.63;15.67;;;16.10;44.40;;;;;;5075049;28;20196;-52
2023/05/07 00:43:06;;;;;;;19.20;16.03;;;16.10;44.50;;;;;;5074846;28;20446;-52
2023/05/07 00:45:33;;;;;;;19.52;16.25;;;16.10;44.40;;;;;;5074983;28;20915;-52
2023/05/07 00:48:03;;;;;;;19.20;16.25;;;16.10;44.50;;;;;;5074952;28;20180;-52
2023/05/07 00:50:29;;;;;;;19.67;15.23;;;16.10;44.30;;;;;;5074854;28;20809;-52
2023/05/07 00:52:55;;;;;;;18.10;15.25;;;16.00;44.30;;;;;;5074807;28;20181;-52
2023/05/07 00:55:23;;;;;;;17.23;14.63;;;16.10;44.30;;;;;;5074913;28;20164;-52
2023/05/07 00:57:50;;;;;;;22.77;16.38;;;16.10;44.50;;;;;;5074818;28;20176;-52
2023/05/07 01:00:16;;;;;;;18.35;16.00;;;16.10;44.20;;;;;;5074690;28;20184;-51
2023/05/07 01:02:43;;;;;;;16.45;14.00;;;16.10;44.30;;;;;;5074434;28;20205;-54
2023/05/07 01:05:15;;;;;;;21.00;15.40;;;16.10;44.20;;;;;;5074781;28;20194;-52
2023/05/07 01:07:42;;;;;;;17.30;15.05;;;16.10;44.10;;;;;;5074653;28;20183;-52
2023/05/07 01:10:09;;;;;;;19.75;14.35;;;16.10;44.20;;;;;;5074864;28;20207;-52
2023/05/07 01:12:37;;;;;;;17.00;15.18;;;16.10;45.00;;;;;;5074493;28;20184;-52
2023/05/07 01:15:05;;;;;;;16.98;15.18;;;16.10;44.10;;;;;;5074397;28;20199;-52
2023/05/07 01:17:39;;;;;;;19.40;16.83;;;16.10;43.90;;;;;;5074432;28;20173;-52
2023/05/07 01:20:07;;;;;;;19.30;17.10;;;16.10;44.00;;;;;;5074333;28;20671;-52
2023/05/07 01:22:37;;;;;;;20.10;14.85;;;16.10;43.70;;;;;;5074006;28;20295;-52
2023/05/07 01:25:04;;;;;;;17.85;14.88;;;16.00;43.70;;;;;;5073981;28;20159;-52
2023/05/07 01:27:30;;;;;;;14.77;13.38;;;16.00;44.00;;;;;;5074109;28;20169;-52
2023/05/07 01:29:56;;;;;;;16.53;13.90;;;16.10;43.80;;;;;;5074188;28;20513;-52
2023/05/07 01:32:32;;;;;;;16.35;14.65;;;16.10;43.80;;;;;;5073975;28;20242;-52
2023/05/07 01:34:59;;;;;;;19.27;15.80;;;16.10;43.70;;;;;;5074256;28;20192;-52
2023/05/07 01:37:26;;;;;;;16.65;14.23;;;16.10;43.70;;;;;;5074143;28;20723;-51
2023/05/07 01:39:53;;;;;;;17.48;14.77;;;16.10;43.70;;;;;;5073885;28;20168;-51
2023/05/07 01:42:19;;;;;;;16.95;14.80;;;16.10;43.80;;;;;;5073919;28;20192;-52
2023/05/07 01:44:45;;;;;;;16.85;14.68;;;16.00;44.70;;;;;;5073938;28;20176;-52
2023/05/07 01:47:13;;;;;;;19.83;16.10;;;16.00;43.90;;;;;;5073975;28;20169;-52
2023/05/07 01:49:40;;;;;;;18.35;15.98;;;16.10;44.00;;;;;;5073891;28;20637;-52
2023/05/07 01:52:05;;;;;;;17.02;14.48;;;16.00;44.10;;;;;;5073644;28;20286;-51
2023/05/07 01:54:31;;;;;;;18.60;14.53;;;16.00;44.10;;;;;;5073729;28;20201;-52
2023/05/07 01:56:57;;;;;;;16.90;15.17;;;16.00;44.10;;;;;;5073737;28;20176;-54
2023/05/07 01:59:23;;;;;;;17.00;15.00;;;16.00;43.90;;;;;;5073662;28;20226;-52
2023/05/07 02:01:48;;;;;;;16.80;14.90;;;16.00;43.60;;;;;;5073403;28;20820;-51
2023/05/07 02:04:14;;;;;;;16.80;15.10;;;16.00;43.70;;;;;;5073641;28;20169;-52
2023/05/07 02:06:40;;;;;;;20.13;17.00;;;16.00;43.70;;;;;;5073588;28;20203;-52
2023/05/07 02:09:06;;;;;;;15.50;13.70;;;16.00;43.60;;;;;;5073496;28;20410;-52
2023/05/07 02:11:32;;;;;;;15.48;13.45;;;16.00;43.50;;;;;;5073390;28;20687;-52
2023/05/07 02:13:57;;;;;;;16.20;13.43;;;16.00;43.50;;;;;;5073432;28;20208;-52
2023/05/07 02:16:23;;;;;;;18.33;14.47;;;15.90;43.50;;;;;;5073509;28;20222;-52
2023/05/07 02:18:49;;;;;;;15.90;13.53;;;15.90;43.60;;;;;;5073357;28;20252;-52
2023/05/07 02:21:15;;;;;;;16.60;14.67;;;15.90;43.60;;;;;;5073125;28;20434;-52
2023/05/07 02:23:41;;;;;;;17.93;13.60;;;15.90;43.50;;;;;;5073148;28;20201;-51
2023/05/07 02:26:07;;;;;;;13.30;11.40;;;15.90;43.50;;;;;;5073122;28;20407;-52
2023/05/07 02:28:35;;;;;;;18.17;12.90;;;15.80;43.60;;;;;;5073043;28;20169;-52
2023/05/07 02:31:02;;;;;;;15.52;13.10;;;15.80;43.80;;;;;;5072873;28;20442;-52
2023/05/07 02:33:28;;;;;;;16.70;12.43;;;15.80;43.90;;;;;;5073034;28;20180;-52
2023/05/07 02:35:54;;;;;;;17.47;13.50;;;15.80;43.80;;;;;;5072318;28;20177;-52
2023/05/07 02:38:20;;;;;;;15.87;12.23;;;15.80;43.70;;;;;;5072871;28;20394;-52
2023/05/07 02:40:45;;;;;;;18.77;12.13;;;15.80;43.90;;;;;;5072786;28;20827;-52
2023/05/07 02:43:11;;;;;;;14.30;12.90;;;15.70;44.00;;;;;;5072628;28;20200;-52
2023/05/07 02:45:37;;;;;;;15.77;13.43;;;15.70;43.90;;;;;;5072859;28;20168;-51
2023/05/07 02:48:05;;;;;;;15.60;12.83;;;15.70;44.00;;;;;;5072894;28;20652;-54
2023/05/07 02:50:32;;;;;;;14.50;13.05;;;15.70;43.90;;;;;;5072602;28;20428;-51
2023/05/07 02:52:58;;;;;;;14.18;11.68;;;15.70;43.80;;;;;;5072317;28;20703;-54
2023/05/07 02:55:24;;;;;;;12.68;10.40;;;15.60;43.90;;;;;;5072523;28;20633;-51
2023/05/07 02:57:50;;;;;;;14.17;10.73;;;15.60;44.20;;;;;;5072462;28;20202;-51
2023/05/07 03:00:18;;;;;;;13.48;11.15;;;15.70;44.00;;;;;;5072384;28;20204;-53
2023/05/07 03:02:45;;;;;;;13.15;9.27;;;15.70;43.90;;;;;;5072287;28;20698;-53
2023/05/07 03:05:11;;;;;;;10.93;9.13;;;15.70;43.90;;;;;;5072472;28;20168;-50
2023/05/07 03:07:37;;;;;;;10.95;9.77;;;15.70;43.90;;;;;;5072574;28;20263;-52
2023/05/07 03:10:03;;;;;;;13.87;10.10;;;15.60;43.60;;;;;;5072628;28;20771;-53
2023/05/07 03:12:30;;;;;;;11.38;10.20;;;15.60;43.50;;;;;;5072187;28;20436;-53
2023/05/07 03:14:55;;;;;;;11.80;10.38;;;15.50;43.90;;;;;;5072319;28;20168;-53
2023/05/07 03:17:22;;;;;;;11.33;9.90;;;15.50;44.10;;;;;;5072267;28;20661;-51
2023/05/07 03:19:47;;;;;;;12.48;11.00;;;15.50;44.00;;;;;;5072218;28;20179;-52
2023/05/07 03:22:13;;;;;;;11.77;9.67;;;15.40;44.00;;;;;;5071954;28;20212;-52
2023/05/07 03:24:39;;;;;;;12.48;11.10;;;15.40;44.10;;;;;;5072233;28;20192;-52
2023/05/07 03:27:05;;;;;;;13.63;10.60;;;15.40;44.30;;;;;;5072156;28;20250;-52
2023/05/07 03:29:31;;;;;;;12.30;9.93;;;15.40;44.40;;;;;;5072335;28;20399;-52
2023/05/07 03:31:56;;;;;;;13.00;10.90;;;15.40;44.30;;;;;;5071767;28;20205;-52
2023/05/07 03:34:22;;;;;;;11.50;10.30;;;15.40;44.30;;;;;;5072114;28;20252;-52
2023/05/07 03:36:51;;;;;;;13.73;11.27;;;15.40;44.00;;;;;;5072006;28;20559;-52
2023/05/07 03:39:17;;;;;;;13.48;9.60;;;15.30;44.10;;;;;;5071985;28;20161;-52
2023/05/07 03:41:42;;;;;;;11.50;10.03;;;15.30;44.30;;;;;;5071753;28;20230;-52
2023/05/07 03:44:08;;;;;;;13.83;10.57;;;15.30;44.30;;;;;;5071976;28;20186;-52
2023/05/07 03:46:34;;;;;;;13.80;11.00;;;15.20;44.30;;;;;;5074348;28;20168;-52
2023/05/07 03:49:00;;;;;;;12.73;10.05;;;15.20;44.30;;;;;;5078512;28;20169;-52
2023/05/07 03:51:26;;;;;;;14.87;11.90;;;15.20;44.30;;;;;;5078495;28;20271;-52
2023/05/07 03:53:52;;;;;;;14.10;11.30;;;15.20;44.30;;;;;;5078374;28;20463;-52
2023/05/07 03:56:19;;;;;;;17.48;12.02;;;15.20;44.60;;;;;;5078501;28;20229;-53
2023/05/07 03:58:45;;;;;;;17.25;13.40;;;15.10;44.60;;;;;;5078553;28;20192;-52
2023/05/07 04:01:11;;;;;;;17.15;13.23;;;15.20;44.50;;;;;;5078685;28;20204;-52
2023/05/07 04:03:37;;;;;;;17.15;12.10;;;15.10;44.60;;;;;;5078124;28;20192;-52
2023/05/07 04:06:03;;;;;;;14.47;11.23;;;15.10;45.40;;;;;;5078494;28;20277;-52
2023/05/07 04:08:29;;;;;;;17.47;12.33;;;15.10;45.10;;;;;;5078397;28;20636;-51
2023/05/07 04:10:56;;;;;;;18.63;13.80;;;15.10;45.20;;;;;;5078356;28;20234;-52
2023/05/07 04:13:21;;;;;;;17.73;12.43;;;15.10;45.00;;;;;;5078288;28;20175;-51
2023/05/07 04:15:48;;;;;;;15.77;12.67;;;15.10;45.00;;;;;;5078416;28;20168;-52
2023/05/07 04:18:15;;;;;;;18.70;12.45;;;15.10;45.00;;;;;;5078192;28;20172;-52
2023/05/07 04:20:41;;;;;;;20.05;15.07;;;15.10;45.20;;;;;;5078214;28;20188;-52
2023/05/07 04:23:07;;;;;;;18.40;12.53;;;15.10;45.20;;;;;;5078130;28;20211;-52
2023/05/07 04:25:33;;;;;;;15.30;10.77;;;15.10;45.30;;;;;;5078263;28;20399;-52
2023/05/07 04:27:59;;;;;;;13.93;12.48;;;15.10;45.10;;;;;;5078363;28;20180;-54
2023/05/07 04:30:25;;;;;;;14.13;11.53;;;15.10;45.00;;;;;;5078040;28;20230;-52
2023/05/07 04:32:51;;;;;;;17.00;13.23;;;15.10;45.10;;;;;;5078281;28;20156;-52
2023/05/07 04:35:17;;;;;;;13.43;11.10;;;15.20;45.10;;;;;;5078232;28;20409;-52
2023/05/07 04:37:43;;;;;;;16.10;12.20;;;15.20;45.00;;;;;;5078121;28;20541;-52
2023/05/07 04:40:09;;;;;;;17.00;11.40;;;15.20;44.90;;;;;;5078341;28;20468;-52
2023/05/07 04:42:35;;;;;;;20.80;12.80;;;15.30;45.00;;;;;;5077836;28;20954;-52
2023/05/07 04:45:01;;;;;;;16.00;12.07;;;15.30;44.80;;;;;;5078193;28;20214;-52
2023/05/07 04:47:27;;;;;;;15.50;12.02;;;15.30;44.90;;;;;;5078256;28;20441;-51
2023/05/07 04:49:53;;;;;;;15.83;11.23;;;15.40;45.00;;;;;;5078072;28;20513;-51
2023/05/07 04:52:19;;;;;;;12.57;10.53;;;15.40;43.90;;;;;;5078093;28;20241;-53
2023/05/07 04:54:44;;;;;;;13.40;10.87;;;15.30;43.70;;;;;;5078014;28;20165;-52
2023/05/07 04:57:10;;;;;;;19.37;14.30;;;15.20;44.10;;;;;;5077968;28;20575;-51
2023/05/07 04:59:36;;;;;;;13.97;12.17;;;15.20;44.30;;;;;;5073988;28;20164;-54
2023/05/07 05:02:03;;;;;;;19.07;13.60;;;15.20;44.60;;;;;;5074411;28;20227;-51
2023/05/07 05:04:30;;;;;;;16.00;12.60;;;15.30;44.80;;;;;;5074767;28;20167;-51
2023/05/07 05:06:56;;;;;;;16.67;12.95;;;15.20;44.70;;;;;;5074633;28;20196;-54
2023/05/07 05:09:22;;;;;;;16.63;14.55;;;15.30;44.70;;;;;;5074663;28;20196;-51
2023/05/07 05:11:47;;;;;;;16.17;12.63;;;15.30;44.70;;;;;;5074354;28;20207;-52
2023/05/07 05:14:13;;;;;;;15.53;11.93;;;15.40;44.60;;;;;;5074560;28;20437;-51
2023/05/07 05:16:39;;;;;;;16.23;10.60;;;15.30;44.10;;;;;;5074376;28;20962;-51
2023/05/07 05:19:05;;;;;;;15.10;12.17;;;15.40;44.20;;;;;;5074504;28;20415;-53
2023/05/07 05:21:31;;;;;;;13.63;11.60;;;15.40;44.40;;;;;;5074425;28;20193;-53
2023/05/07 05:23:57;;;;;;;13.77;10.60;;;15.40;44.30;;;;;;5074137;28;20196;-51
2023/05/07 05:26:23;;;;;;;13.05;10.15;;;15.40;44.10;;;;;;5074621;28;20259;-53
2023/05/07 05:28:49;;;;;;;11.20;10.00;;;15.40;44.00;;;;;;5074299;28;20243;-52
2023/05/07 05:31:16;;;;;;;16.43;12.43;;;15.50;43.80;;;;;;5073997;28;20438;-51
2023/05/07 05:33:42;;;;;;;12.50;9.93;;;15.50;43.80;;;;;;5074178;28;20430;-53
2023/05/07 05:36:10;;;;;;;14.43;10.97;;;15.50;43.80;;;;;;5074069;28;20653;-53
2023/05/07 05:38:36;;;;;;;13.77;9.63;;;15.50;43.80;;;;;;5074401;28;20180;-51
2023/05/07 05:41:02;;;;;;;12.00;9.80;;;15.40;43.30;;;;;;5074279;28;20254;-53
2023/05/07 05:43:27;;;;;;;12.53;10.87;;;15.40;43.40;;;;;;5073764;28;20536;-53
2023/05/07 05:45:55;;;;;;;19.20;13.00;;;15.30;43.20;;;;;;5073967;28;20169;-51
2023/05/07 05:48:20;;;;;;;14.43;11.38;;;15.20;43.50;;;;;;5073839;28;20176;-51
2023/05/07 05:50:46;;;;;;;16.30;11.83;;;15.10;43.60;;;;;;5074013;28;20462;-53
2023/05/07 05:53:12;;;;;;;13.23;11.63;;;15.10;43.80;;;;;;5073703;28;20204;-51
2023/05/07 05:55:37;;;;;;;14.77;10.90;;;15.10;43.80;;;;;;5074069;28;20682;-53
2023/05/07 05:58:03;;;;;;;12.43;10.60;;;15.10;43.60;;;;;;5073752;28;20172;-53
2023/05/07 06:00:29;;;;;;;11.27;9.80;;;15.10;43.90;;;;;;5073507;28;20192;-51
2023/05/07 06:02:55;;;;;;;14.77;9.07;;;15.10;43.40;;;;;;5073326;28;20205;-51
2023/05/07 06:05:21;;;;;;;10.63;8.97;;;15.10;43.40;;;;;;5073503;28;20230;-53
2023/05/07 06:07:47;;;;;;;10.40;8.17;;;15.20;43.00;;;;;;5073653;28;20406;-51
2023/05/07 06:10:12;;;;;;;12.20;8.77;;;15.20;42.90;;;;;;5073566;28;20592;-51
2023/05/07 06:12:39;;;;;;;21.13;9.57;;;15.20;43.30;;;;;;5073285;28;20177;-53
2023/05/07 06:15:06;;;;;;;10.90;8.13;;;15.20;43.10;;;;;;5073323;28;20172;-53
2023/05/07 06:17:31;;;;;;;9.48;7.25;;;15.30;43.30;;;;;;5073259;28;20177;-51
2023/05/07 06:19:57;;;;;;;13.13;9.63;;;15.30;43.00;;;;;;5073179;28;20176;-53
2023/05/07 06:22:23;;;;;;;11.10;9.17;;;15.20;42.90;;;;;;5072989;28;20457;-51
2023/05/07 06:24:48;;;;;;;10.17;8.50;;;15.20;43.00;;;;;;5073146;28;20207;-51
2023/05/07 06:27:14;;;;;;;12.10;7.20;;;15.20;43.20;;;;;;5073124;28;20568;-51
2023/05/07 06:29:40;;;;;;;12.90;9.23;;;15.20;43.00;;;;;;5073215;28;20172;-54
2023/05/07 06:32:10;;;;;;;12.10;8.57;;;15.30;43.10;;;;;;5072731;28;20230;-51
2023/05/07 06:34:36;;;;;;;11.55;9.00;;;15.40;43.00;;;;;;5072859;28;20656;-51
2023/05/07 06:37:02;;;;;;;14.07;9.20;;;15.40;42.70;;;;;;5072860;28;20187;-53
2023/05/07 06:39:27;;;;;;;8.90;7.30;;;15.40;43.00;;;;;;5072863;28;20421;-52
2023/05/07 06:41:53;;;;;;;8.37;7.57;;;15.40;43.40;;;;;;5072482;28;20826;-51
2023/05/07 06:44:19;;;;;;;17.50;7.30;;;15.40;42.50;;;;;;5072702;28;20165;-51
2023/05/07 06:46:45;;;;;;;8.90;7.03;;;15.30;42.40;;;;;;5072709;28;20843;-53
2023/05/07 06:49:12;;;;;;;8.33;7.00;;;15.30;42.60;;;;;;5072717;28;20174;-51
2023/05/07 06:51:38;;;;;;;8.15;6.78;;;15.30;42.60;;;;;;5072559;28;20271;-53
2023/05/07 06:54:04;;;;;;;9.13;7.70;;;15.30;42.60;;;;;;5072532;28;20640;-53
2023/05/07 06:56:30;;;;;;;8.50;7.60;;;15.40;42.70;;;;;;5072804;28;20183;-50
2023/05/07 06:58:56;;;;;;;12.65;9.18;;;15.40;43.00;;;;;;5072486;28;20203;-50
2023/05/07 07:01:22;;;;;;;11.93;9.30;;;15.40;43.00;;;;;;5072373;28;20208;-53
2023/05/07 07:03:47;;;;;;;11.13;9.23;;;15.40;43.00;;;;;;5072217;28;20200;-53
2023/05/07 07:06:13;;;;;;;9.60;7.73;;;15.40;42.90;;;;;;5072424;28;20164;-51
2023/05/07 07:08:39;;;;;;;9.03;8.13;;;15.30;42.80;;;;;;5072303;28;20169;-51
2023/05/07 07:11:05;;;;;;;8.13;7.17;;;15.20;42.90;;;;;;5072216;28;20415;-53
2023/05/07 07:13:31;;;;;;;8.60;7.63;;;15.20;42.80;;;;;;5072083;28;20177;-50
2023/05/07 07:15:57;;;;;;;9.60;8.17;;;15.20;42.80;;;;;;5072310;28;20179;-50
2023/05/07 07:18:23;;;;;;;7.60;6.77;;;15.10;43.30;;;;;;5072226;28;20161;-53
2023/05/07 07:20:48;;;;;;;7.70;6.40;;;15.20;43.10;;;;;;5071676;28;20514;-51
2023/05/07 07:23:14;;;;;;;7.00;5.20;;;15.20;43.00;;;;;;5071946;28;20830;-53
2023/05/07 07:25:40;;;;;;;7.43;6.20;;;15.30;42.70;;;;;;5072147;28;20834;-53
2023/05/07 07:28:06;;;;;;;5.88;5.28;;;15.30;42.60;;;;;;5072266;28;20752;-51
2023/05/07 07:30:32;;;;;;;8.32;6.90;;;15.30;42.40;;;;;;5071842;28;20208;-51
2023/05/07 07:33:02;;;;;;;10.90;8.20;;;15.40;42.40;;;;;;5072300;28;20164;-53
2023/05/07 07:35:32;;;;;;;5.47;4.90;;;15.50;42.70;;;;;;5072234;28;20599;-53
2023/05/07 07:37:58;;;;;;;7.03;4.95;;;15.60;42.40;;;;;;5072008;28;20581;-53
2023/05/07 07:40:24;;;;;;;6.20;5.60;;;15.60;41.70;;;;;;5071872;28;20196;-51
2023/05/07 07:42:51;;;;;;;9.45;5.05;;;15.60;41.90;;;;;;5071822;28;20212;-51
2023/05/07 07:45:16;;;;;;;6.90;5.43;;;15.70;41.90;;;;;;5072035;28;20176;-53
2023/05/07 07:47:42;;;;;;;6.33;5.73;;;15.70;41.60;;;;;;5071897;28;20173;-50
2023/05/07 07:50:09;;;;;;;6.67;5.93;;;15.70;41.60;;;;;;5071809;28;20271;-51
2023/05/07 07:52:35;;;;;;;6.68;5.80;;;15.80;41.30;;;;;;5072069;28;20629;-54
2023/05/07 07:55:01;;;;;;;6.50;5.90;;;15.70;41.30;;;;;;5071724;28;20195;-53
2023/05/07 07:57:27;;;;;;;6.35;5.15;;;15.70;41.90;;;;;;5071860;28;20960;-51
2023/05/07 07:59:52;;;;;;;6.17;5.57;;;15.80;41.70;;;;;;5071799;28;20181;-51
2023/05/07 08:02:18;;;;;;;5.23;4.73;;;15.80;41.50;;;;;;5071533;28;20446;-53
2023/05/07 08:04:44;;;;;;;6.23;5.63;;;15.70;41.40;;;;;;5071979;28;20177;-50
2023/05/07 08:07:10;;;;;;;4.67;4.27;;;15.70;41.40;;;;;;5071666;28;20666;-53
2023/05/07 08:09:37;;;;;;;4.97;4.40;;;15.60;41.30;;;;;;5071615;28;20429;-51
2023/05/07 08:12:04;;;;;;;4.88;4.38;;;15.70;41.60;;;;;;5071522;28;20238;-51
2023/05/07 08:14:30;;;;;;;6.55;5.22;;;15.80;41.70;;;;;;5071673;28;20657;-53
2023/05/07 08:16:55;;;;;;;4.93;4.43;;;15.80;41.60;;;;;;5071559;28;20199;-51
2023/05/07 08:19:22;;;;;;;4.70;4.30;;;15.90;41.50;;;;;;5071838;28;20177;-51
2023/05/07 08:21:48;;;;;;;5.57;4.10;;;15.90;41.40;;;;;;5071447;28;20211;-53
2023/05/07 08:24:14;;;;;;;4.47;4.07;;;15.90;40.90;;;;;;5071472;28;20292;-51
2023/05/07 08:26:40;;;;;;;4.70;3.53;;;15.80;41.00;;;;;;5071567;28;20169;-51
2023/05/07 08:29:07;;;;;;;4.63;4.22;;;15.90;41.30;;;;;;5071490;28;20234;-52
2023/05/07 08:31:32;;;;;;;7.55;4.25;;;16.00;41.20;;;;;;5071299;28;20204;-51
2023/05/07 08:33:58;;;;;;;5.50;4.27;;;16.00;41.00;;;;;;5072987;28;20238;-51
2023/05/07 08:36:25;;;;;;;5.53;5.00;;;16.00;41.20;;;;;;5075251;28;20485;-53
2023/05/07 08:38:52;;;;;;;4.97;4.35;;;16.10;40.50;;;;;;5075131;28;20168;-50
2023/05/07 08:41:18;;;;;;;5.10;4.65;;;16.10;40.30;;;;;;5075064;28;20184;-50
2023/05/07 08:43:50;;;;;;;5.30;4.72;;;16.00;39.80;;;;;;5074823;28;20234;-53
2023/05/07 08:46:21;;;;;;;6.07;5.00;;;16.00;39.70;;;;;;5075061;28;20605;-50
2023/05/07 08:48:51;;;;;;;7.43;5.95;;;16.00;40.40;;;;;;5074947;28;20180;-54
2023/05/07 08:51:21;;;;;;;8.48;7.50;;;15.90;40.30;;;;;;5074804;28;20191;-51
2023/05/07 08:53:48;;;;;;;7.78;6.40;;;15.90;40.40;;;;;;5074654;28;20179;-52
2023/05/07 08:56:18;;;;;;;9.65;6.78;;;15.90;40.30;;;;;;5074894;28;20656;-51
2023/05/07 08:58:44;;;;;;;7.97;7.00;;;15.80;40.40;;;;;;5074811;28;20260;-54
2023/05/07 09:01:14;;;;;;;7.32;6.63;;;15.70;40.60;;;;;;5074748;28;20279;-51
2023/05/07 09:03:40;;;;;;;8.52;7.68;;;15.70;40.70;;;;;;5074401;28;20266;-53
2023/05/07 09:06:06;;;;;;;7.20;6.50;;;15.80;40.90;;;;;;5074719;28;20711;-51
2023/05/07 09:08:35;;;;;;;10.82;8.35;;;15.80;40.80;;;;;;5074910;28;20192;-53
2023/05/07 09:11:02;;;;;;;7.57;6.35;;;15.80;40.60;;;;;;5074528;28;20259;-51
2023/05/07 09:13:28;;;;;;;6.57;5.97;;;15.80;40.60;;;;;;5074352;28;20173;-51
2023/05/07 09:15:55;;;;;;;17.17;15.75;;;15.80;40.50;;;;;;5074423;28;20173;-53
2023/05/07 09:18:20;;;;;;;7.00;6.30;;;15.80;40.60;;;;;;5074339;28;20226;-53
2023/05/07 09:20:46;;;;;;;7.43;6.63;;;15.80;41.00;;;;;;5074282;28;20196;-50
2023/05/07 09:23:12;;;;;;;8.00;5.90;;;15.90;41.00;;;;;;5074333;28;20208;-53
2023/05/07 09:25:38;;;;;;;7.00;6.23;;;15.80;40.20;;;;;;5074364;28;20172;-50
2023/05/07 09:28:06;;;;;;;6.57;5.63;;;15.90;40.40;;;;;;5074617;28;20830;-50
2023/05/07 09:30:33;;;;;;;8.25;6.45;;;15.90;40.20;;;;;;5074103;28;20447;-53
2023/05/07 09:33:00;;;;;;;5.70;5.20;;;15.90;40.40;;;;;;5074186;28;20169;-50
2023/05/07 09:35:28;;;;;;;8.52;6.68;;;15.90;40.20;;;;;;5074118;28;20228;-53
2023/05/07 09:37:58;;;;;;;6.85;6.15;;;16.00;40.70;;;;;;5074311;28;20200;-51
2023/05/07 09:40:29;;;;;;;6.80;6.10;;;16.00;40.30;;;;;;5074078;28;20272;-50
2023/05/07 09:42:55;;;;;;;8.02;7.22;;;16.00;40.10;;;;;;5073858;28;20199;-53
2023/05/07 09:45:28;;;;;;;7.68;6.78;;;16.00;39.70;;;;;;5072169;28;20222;-51
2023/05/07 09:47:56;;;;;;;8.48;6.70;;;16.00;40.70;;;;;;5073905;28;20613;-53
2023/05/07 09:50:27;;;;;;;7.15;6.45;;;16.00;40.10;;;;;;5073868;28;20263;-51
2023/05/07 09:52:55;;;;;;;8.27;6.88;;;16.10;40.20;;;;;;5073795;28;20180;-51
2023/05/07 09:55:21;;;;;;;11.25;7.75;;;16.10;39.40;;;;;;5074088;28;20188;-51
2023/05/07 09:57:50;;;;;;;12.23;8.65;;;16.20;39.80;;;;;;5073664;28;20510;-53
2023/05/07 10:00:19;;;;;;;8.70;7.32;;;16.30;40.10;;;;;;5073846;28;20283;-50
2023/05/07 10:02:51;;;;;;;7.45;6.70;;;16.40;39.50;;;;;;5073329;28;20208;-53
2023/05/07 10:05:22;;;;;;;7.20;6.47;;;16.40;39.50;;;;;;5073492;28;20667;-53
2023/05/07 10:07:48;;;;;;;9.35;8.38;;;16.40;39.80;;;;;;5073591;28;20196;-51
2023/05/07 10:10:15;;;;;;;11.18;8.27;;;16.30;39.30;;;;;;5073371;28;20184;-53
2023/05/07 10:12:41;;;;;;;9.60;8.70;;;16.30;39.60;;;;;;5073255;28;20208;-54
2023/05/07 10:15:11;;;;;;;8.85;7.95;;;16.30;39.70;;;;;;5073591;28;20637;-51
2023/05/07 10:17:38;;;;;;;9.30;8.40;;;16.30;39.60;;;;;;5073374;28;20172;-51
2023/05/07 10:20:05;;;;;;;9.77;8.77;;;16.30;39.70;;;;;;5073187;28;20188;-54
2023/05/07 10:22:46;;;;;;;8.93;7.38;;;16.40;39.60;;;;;;5073015;28;20243;-51
2023/05/07 10:25:20;;;;;;;8.60;7.70;;;16.50;39.60;;;;;;5073147;28;20263;-53
2023/05/07 10:27:50;;;;;;;7.13;6.43;;;16.70;39.70;;;;;;5073266;28;20294;-51
2023/05/07 10:30:40;;;;;;;9.48;7.95;;;16.60;38.70;;;;;;5071735;28;20189;-51
2023/05/07 10:33:08;;;;;;;8.50;7.70;;;16.70;38.30;;;;;;5072828;28;20671;-51
2023/05/07 10:35:46;;;;;;;8.77;7.38;;;16.50;38.50;;;;;;5072900;28;20218;-52
2023/05/07 10:38:13;;;;;;;9.35;8.45;;;16.60;38.60;;;;;;5072858;28;20236;-51
2023/05/07 10:40:39;;;;;;;7.75;6.95;;;16.60;39.30;;;;;;5072886;28;20192;-53
2023/05/07 10:43:06;;;;;;;9.48;8.38;;;16.70;39.00;;;;;;5072613;28;20300;-53
2023/05/07 10:45:32;;;;;;;9.07;7.57;;;16.80;38.80;;;;;;5072724;28;20172;-50
2023/05/07 10:48:14;;;;;;;6.50;5.90;;;16.90;38.80;;;;;;5072680;28;20169;-51
2023/05/07 10:50:42;;;;;;;8.23;7.38;;;16.90;38.20;;;;;;5072935;28;20215;-51
2023/05/07 10:53:17;;;;;;;19.27;16.20;;;17.00;38.00;;;;;;5072782;28;20168;-51
2023/05/07 10:55:47;;;;;;;9.68;7.70;;;17.10;38.10;;;;;;5072000;28;20255;-50
2023/05/07 10:58:26;;;;;;;7.45;6.55;;;17.20;38.20;;;;;;5072485;28;20211;-53
2023/05/07 11:01:00;;;;;;;7.60;6.90;;;17.40;37.10;;;;;;5072424;28;20275;-52
2023/05/07 11:03:27;;;;;;;9.15;8.35;;;17.40;37.20;;;;;;5072290;28;20211;-53
2023/05/07 11:06:13;;;;;;;10.68;9.68;;;17.50;37.90;;;;;;5072496;28;20195;-53
2023/05/07 11:08:56;;;;;;;9.27;8.38;;;17.60;37.40;;;;;;5072297;28;20652;-53
2023/05/07 11:11:47;;;;;;;8.00;6.32;;;17.70;37.20;;;;;;5072259;28;20743;-53
2023/05/07 11:14:14;;;;;;;11.27;10.05;;;17.70;37.00;;;;;;5072239;28;20283;-53
2023/05/07 11:16:43;;;;;;;7.80;7.10;;;17.80;37.10;;;;;;5072526;28;20169;-51
2023/05/07 11:19:08;;;;;;;19.00;17.13;;;17.70;36.30;;;;;;5072142;28;20191;-51
2023/05/07 11:21:39;;;;;;;7.70;6.70;;;17.80;36.90;;;;;;5072425;28;20196;-53
2023/05/07 11:24:07;;;;;;;8.57;7.78;;;17.70;37.00;;;;;;5071957;28;20722;-51
2023/05/07 11:26:47;;;;;;;8.45;7.60;;;17.70;36.50;;;;;;5072148;28;20188;-51
2023/05/07 11:29:22;;;;;;;13.20;11.90;;;17.70;36.30;;;;;;5072156;28;20168;-53
2023/05/07 11:31:50;;;;;;;33.15;24.23;;;17.70;36.70;;;;;;5071768;28;20711;-50
2023/05/07 11:34:24;;;;;;;7.45;6.75;;;17.80;36.40;;;;;;5072082;28;20255;-53
2023/05/07 11:36:51;;;;;;;9.32;8.05;;;17.80;35.80;;;;;;5072210;28;20177;-51
2023/05/07 11:39:33;;;;;;;6.75;6.10;;;17.70;36.30;;;;;;5072277;28;20502;-51
2023/05/07 11:42:01;;;;;;;10.82;8.25;;;17.60;36.00;;;;;;5071912;28;20203;-52
2023/05/07 11:44:45;;;;;;;25.88;23.08;;;17.50;36.50;;;;;;5071935;28;20263;-51
2023/05/07 11:47:16;;;;;;;8.18;7.25;;;17.50;36.80;;;;;;5071986;28;20176;-53
2023/05/07 11:49:42;;;;;;;13.43;12.05;;;17.60;36.60;;;;;;5071847;28;20176;-51
2023/05/07 11:52:08;;;;;;;9.77;8.87;;;17.60;36.90;;;;;;5071674;28;20237;-51
2023/05/07 11:54:37;;;;;;;7.63;6.77;;;17.70;36.80;;;;;;5071786;28;20177;-53
2023/05/07 11:57:03;;;;;;;8.32;7.50;;;17.80;36.30;;;;;;5072113;28;20768;-51
2023/05/07 11:59:29;;;;;;;18.53;16.63;;;17.70;36.30;;;;;;5072116;28;20177;-51
2023/05/07 12:01:59;;;;;;;11.50;10.33;;;17.80;36.70;;;;;;5071611;28;20438;-51
2023/05/07 12:04:25;;;;;;;9.00;6.05;;;17.90;37.40;;;;;;5071818;28;20187;-53
2023/05/07 12:06:55;;;;;;;16.23;14.67;;;17.90;36.20;;;;;;5071692;28;20173;-51
2023/05/07 12:09:21;;;;;;;11.57;10.52;;;17.90;36.30;;;;;;5076031;28;20394;-51
2023/05/07 12:11:47;;;;;;;53.13;40.67;;;18.00;36.50;;;;;;5075640;28;20634;-53
2023/05/07 12:14:13;;;;;;;20.58;18.60;;;18.10;36.80;;;;;;5075651;28;20429;-51
2023/05/07 12:16:42;;;;;;;14.52;13.02;;;18.10;36.80;;;;;;5075527;28;20202;-50
2023/05/07 12:19:12;;;;;;;12.25;10.18;;;18.20;36.40;;;;;;5075330;28;20536;-53
2023/05/07 12:21:38;;;;;;;9.55;8.63;;;18.20;36.40;;;;;;5075201;28;20192;-51
2023/05/07 12:24:05;;;;;;;9.10;7.38;;;18.30;36.50;;;;;;5075541;28;20196;-51
2023/05/07 12:26:31;;;;;;;10.93;9.82;;;18.30;36.00;;;;;;5075258;28;20169;-53
2023/05/07 12:28:59;;;;;;;12.33;11.13;;;18.30;36.50;;;;;;5075284;28;20576;-53
2023/05/07 12:31:27;;;;;;;12.13;10.82;;;18.40;36.50;;;;;;5075192;28;20215;-51
2023/05/07 12:33:53;;;;;;;7.30;6.60;;;18.50;36.80;;;;;;5075131;28;20211;-53
2023/05/07 12:36:20;;;;;;;10.53;8.80;;;18.60;36.20;;;;;;5075087;28;20196;-53